Time;durP1;ratioP1;P1;durP2;ratioP2;P2;SDS_P1;SDS_P2;PMS_P1;PMS_P2;Temp;Humidity;BMP_temperature;BMP_pressure;BME280_temperature;BME280_humidity;BME280_pressure;Samples;Min_cycle;Max_cycle;Signal;HPM_P1;HPM_P2
2023/01/15 00:00:20;;;;;;;28.10;14.70;;;;;;;-1.67;99.60;100138.29;109763;1284;22155;-60
2023/01/15 00:02:47;;;;;;;25.20;14.00;;;;;;;-1.68;99.65;100139.05;109786;1284;22205;-60
2023/01/15 00:05:14;;;;;;;32.90;15.80;;;;;;;-1.68;99.53;100132.35;109637;1283;138354;-60
2023/01/15 00:07:41;;;;;;;23.70;13.80;;;;;;;-1.69;99.51;100131.30;109793;1284;22363;-60
2023/01/15 00:10:08;;;;;;;;;;;;;;;-1.70;99.73;100125.55;109672;1276;139075;-60
2023/01/15 00:12:34;;;;;;;22.00;13.60;;;;;;;-1.69;99.60;100123.19;109763;1278;22337;-60
2023/01/15 00:15:01;;;;;;;24.60;13.50;;;;;;;-1.68;99.87;100126.27;109755;1276;22386;-60
2023/01/15 00:17:28;;;;;;;26.50;13.10;;;;;;;-1.68;99.82;100128.43;109653;1278;138805;-60
2023/01/15 00:19:54;;;;;;;27.00;14.00;;;;;;;-1.68;99.83;100129.51;109754;1276;22403;-60
2023/01/15 00:22:21;;;;;;;27.70;14.40;;;;;;;-1.70;99.90;100130.53;109596;1280;139874;-60
2023/01/15 00:27:39;;;;;;;28.20;15.10;;;;;;;-1.70;99.89;100122.91;109791;1277;22354;-60
2023/01/15 00:30:11;;;;;;;23.80;12.60;;;;;;;-1.70;99.86;100121.66;109447;1281;138110;-61
2023/01/15 00:32:41;;;;;;;25.50;14.00;;;;;;;-1.69;99.81;100116.71;109775;1282;22234;-60
2023/01/15 00:35:13;;;;;;;24.80;13.80;;;;;;;-1.67;99.87;100118.29;109656;1281;138984;-60
2023/01/15 00:37:40;;;;;;;21.70;12.10;;;;;;;-1.66;99.97;100115.19;109768;1279;22337;-60
2023/01/15 00:40:10;;;;;;;25.80;13.00;;;;;;;-1.66;99.95;100114.99;109645;1280;139641;-60
2023/01/15 00:42:37;;;;;;;24.80;12.70;;;;;;;-1.66;99.92;100114.66;109803;1284;23101;-60
2023/01/15 00:45:08;;;;;;;;;;;;;;;-1.66;99.98;100111.39;109669;1284;22428;-61
2023/01/15 00:47:40;;;;;;;27.50;14.10;;;;;;;-1.65;99.99;100108.67;109662;1278;125176;-60
2023/01/15 00:50:11;;;;;;;31.90;14.60;;;;;;;-1.65;99.96;100106.02;109748;1284;22262;-60
2023/01/15 00:52:37;;;;;;;26.60;13.30;;;;;;;-1.66;99.98;100103.46;109632;1282;138426;-60
2023/01/15 00:55:05;;;;;;;26.10;13.40;;;;;;;-1.68;100.00;100104.73;109765;1279;22240;-60
2023/01/15 00:57:32;;;;;;;27.00;14.80;;;;;;;-1.70;100.00;100104.39;109742;1282;22529;-60
2023/01/15 00:59:58;;;;;;;26.90;13.20;;;;;;;-1.71;100.00;100101.65;109637;1276;139137;-60
2023/01/15 01:02:25;;;;;;;21.50;11.70;;;;;;;-1.72;99.99;100098.37;109693;1278;22277;-60
2023/01/15 01:04:52;;;;;;;;;;;;;;;-1.74;100.00;100096.33;109638;1283;138467;-60
2023/01/15 01:07:18;;;;;;;22.60;11.00;;;;;;;-1.77;100.00;100090.54;109743;1281;23383;-60
2023/01/15 01:09:45;;;;;;;25.90;12.00;;;;;;;-1.79;100.00;100092.36;109741;1283;22275;-60
2023/01/15 01:12:12;;;;;;;25.20;11.50;;;;;;;-1.80;100.00;100093.30;109629;1284;140470;-60
2023/01/15 01:14:38;;;;;;;23.60;12.10;;;;;;;-1.81;100.00;100094.46;109717;1285;22307;-60
2023/01/15 01:17:05;;;;;;;19.90;11.10;;;;;;;-1.83;100.00;100092.76;109567;1283;140124;-60
2023/01/15 01:19:32;;;;;;;21.70;11.10;;;;;;;-1.83;100.00;100095.09;109694;1282;22280;-60
2023/01/15 01:21:59;;;;;;;22.80;11.20;;;;;;;-1.83;100.00;100097.92;109555;1279;138864;-60
2023/01/15 01:24:26;;;;;;;22.30;13.40;;;;;;;-1.83;100.00;100090.95;109684;1285;23117;-60
2023/01/15 01:26:53;;;;;;;24.70;12.10;;;;;;;-1.82;100.00;100089.42;109692;1282;23429;-60
2023/01/15 01:29:21;;;;;;;24.30;11.90;;;;;;;-1.81;100.00;100086.48;109604;1282;138683;-60
2023/01/15 01:31:49;;;;;;;20.60;10.60;;;;;;;-1.81;100.00;100092.53;109707;1283;23413;-60
2023/01/15 01:34:17;;;;;;;24.40;12.20;;;;;;;-1.81;100.00;100088.65;109605;1279;139317;-60
2023/01/15 01:36:44;;;;;;;;;;;;;;;-1.83;100.00;100088.84;109685;1279;22405;-60
2023/01/15 01:39:15;;;;;;;21.30;10.30;;;;;;;-1.82;100.00;100088.95;109534;1285;22569;-59
2023/01/15 01:41:43;;;;;;;23.40;11.70;;;;;;;-1.80;100.00;100090.13;105148;1285;138880;-59
2023/01/15 01:44:31;;;;;;;21.30;11.80;;;;;;;-1.79;100.00;100085.23;105241;1281;24581;-60
2023/01/15 01:47:05;;;;;;;23.00;12.00;;;;;;;-1.79;100.00;100084.13;105117;1283;138598;-60
2023/01/15 01:49:32;;;;;;;22.90;11.70;;;;;;;-1.78;100.00;100085.33;109734;1278;22903;-60
2023/01/15 01:52:03;;;;;;;;;;;;;;;-1.78;100.00;100083.48;109465;1279;138819;-60
2023/01/15 01:54:30;;;;;;;20.00;10.50;;;;;;;-1.77;100.00;100085.27;109536;1284;22194;-60
2023/01/15 01:56:57;;;;;;;25.00;11.80;;;;;;;-1.80;100.00;100088.48;109731;1281;22196;-60
2023/01/15 01:59:23;;;;;;;21.20;12.00;;;;;;;-1.82;100.00;100091.36;109690;1279;138816;-60
2023/01/15 02:01:51;;;;;;;20.60;11.30;;;;;;;-1.81;100.00;100095.20;109787;1281;23004;-60
2023/01/15 02:04:20;;;;;;;21.60;11.70;;;;;;;-1.80;100.00;100095.58;109721;1281;139139;-60
2023/01/15 02:06:46;;;;;;;19.90;11.10;;;;;;;-1.77;100.00;100095.59;109806;1277;22253;-60
2023/01/15 02:09:13;;;;;;;21.60;11.50;;;;;;;-1.75;100.00;100097.85;109883;1282;22265;-60
2023/01/15 02:11:40;;;;;;;18.20;10.00;;;;;;;-1.74;100.00;100098.46;109670;1273;139478;-60
2023/01/15 02:14:19;;;;;;;20.40;11.00;;;;;;;-1.71;100.00;100103.41;109869;1275;23236;-60
2023/01/15 02:17:18;;;;;;;20.40;11.30;;;;;;;-1.69;100.00;100103.52;109653;1281;138759;-60
2023/01/15 02:19:49;;;;;;;;;;;;;;;-1.67;100.00;100099.29;109477;1286;22535;-60
2023/01/15 02:22:29;;;;;;;20.40;10.00;;;;;;;-1.66;100.00;100094.52;109386;1286;124827;-60
2023/01/15 02:25:02;;;;;;;24.40;12.40;;;;;;;-1.67;100.00;100088.04;109456;1286;22306;-60
2023/01/15 02:27:30;;;;;;;19.80;11.70;;;;;;;-1.69;100.00;100090.94;109501;1286;23030;-60
2023/01/15 02:29:58;;;;;;;;;;;;;;;-1.67;100.00;100097.48;109477;1280;139684;-60
2023/01/15 02:32:33;;;;;;;20.20;11.00;;;;;;;-1.65;100.00;100096.92;109527;1285;22335;-60
2023/01/15 02:35:03;;;;;;;23.70;11.50;;;;;;;-1.66;100.00;100090.94;109474;1286;138634;-59
2023/01/15 02:37:32;;;;;;;23.10;11.20;;;;;;;-1.62;100.00;100091.79;109439;1285;22205;-60
2023/01/15 02:39:59;;;;;;;21.50;11.20;;;;;;;-1.60;100.00;100090.30;109447;1286;138831;-60
2023/01/15 02:42:26;;;;;;;23.00;12.00;;;;;;;-1.60;100.00;100083.77;109652;1280;22192;-60
2023/01/15 02:44:53;;;;;;;20.10;12.00;;;;;;;-1.62;100.00;100081.03;109470;1286;22988;-60
2023/01/15 02:47:25;;;;;;;18.30;10.20;;;;;;;-1.59;100.00;100084.52;109461;1281;138948;-60
2023/01/15 02:49:54;;;;;;;20.00;10.90;;;;;;;-1.58;100.00;100087.90;109466;1281;23006;-61
2023/01/15 02:52:24;;;;;;;21.50;10.90;;;;;;;-1.57;100.00;100085.80;109315;1284;139300;-60
2023/01/15 02:55:06;;;;;;;26.10;12.10;;;;;;;-1.55;100.00;100077.81;109387;1286;22226;-60
2023/01/15 02:57:36;;;;;;;23.70;11.50;;;;;;;-1.55;100.00;100070.17;109711;1277;23057;-60
2023/01/15 03:00:06;;;;;;;20.00;11.00;;;;;;;-1.55;100.00;100067.86;109721;1282;141850;-60
2023/01/15 03:02:35;;;;;;;18.80;10.80;;;;;;;-1.55;100.00;100065.46;109734;1283;22278;-60
2023/01/15 03:05:17;;;;;;;19.20;10.90;;;;;;;-1.55;100.00;100061.05;109639;1282;140618;-60
2023/01/15 03:07:55;;;;;;;21.10;10.30;;;;;;;-1.55;100.00;100066.73;109739;1281;22358;-60
2023/01/15 03:10:33;;;;;;;23.60;11.50;;;;;;;-1.53;100.00;100068.31;109529;1277;139075;-60
2023/01/15 03:13:04;;;;;;;20.50;11.30;;;;;;;-1.51;100.00;100073.05;109855;1277;22382;-60
2023/01/15 03:18:55;;;;;;;20.00;10.60;;;;;;;-1.50;100.00;100078.33;109784;1275;22183;-60
2023/01/15 03:21:26;;;;;;;21.80;11.30;;;;;;;-1.53;100.00;100072.71;109601;1282;23013;-60
2023/01/15 03:23:53;;;;;;;20.70;10.90;;;;;;;-1.54;100.00;100075.35;109534;1276;140440;-61
2023/01/15 03:26:21;;;;;;;24.90;11.30;;;;;;;-1.55;100.00;100072.80;109784;1281;22269;-60
2023/01/15 03:28:48;;;;;;;22.80;11.70;;;;;;;-1.56;100.00;100065.77;109713;1280;138845;-60
2023/01/15 03:31:15;;;;;;;23.90;11.70;;;;;;;-1.53;100.00;100069.44;109769;1279;22187;-60
2023/01/15 03:33:41;;;;;;;;;;;;;;;-1.54;100.00;100063.97;109755;1282;22435;-60
2023/01/15 03:36:12;;;;;;;21.00;11.70;;;;;;;-1.54;100.00;100059.39;109656;1277;125710;-60
2023/01/15 03:38:45;;;;;;;21.50;11.80;;;;;;;-1.56;100.00;100061.19;109798;1277;22214;-60
2023/01/15 03:41:36;;;;;;;24.90;13.50;;;;;;;-1.58;100.00;100061.73;109675;1282;139189;-60
2023/01/15 03:44:31;;;;;;;22.40;11.70;;;;;;;-1.58;100.00;100067.80;109815;1282;22253;-60
2023/01/15 03:47:08;;;;;;;22.60;10.90;;;;;;;-1.60;100.00;100066.59;109642;1277;140775;-60
2023/01/15 03:50:02;;;;;;;23.10;11.40;;;;;;;-1.61;100.00;100065.98;109801;1277;22194;-60
2023/01/15 03:52:45;;;;;;;18.50;10.60;;;;;;;-1.62;100.00;100066.61;109545;1283;139189;-60
2023/01/15 03:55:25;;;;;;;20.20;10.40;;;;;;;-1.63;100.00;100065.14;109805;1276;22923;-60
2023/01/15 03:58:01;;;;;;;19.40;10.10;;;;;;;-1.63;100.00;100066.41;109722;1283;138764;-60
2023/01/15 04:00:39;;;;;;;19.30;11.00;;;;;;;-1.64;100.00;100064.07;109596;1280;22323;-60
2023/01/15 04:03:06;;;;;;;21.20;11.10;;;;;;;-1.65;100.00;100061.80;109765;1276;22229;-59
2023/01/15 04:05:34;;;;;;;19.50;11.20;;;;;;;-1.65;100.00;100061.83;109647;1277;138502;-60
2023/01/15 04:08:02;;;;;;;20.60;10.80;;;;;;;-1.67;100.00;100057.25;109717;1282;22407;-60
2023/01/15 04:10:29;;;;;;;20.20;11.80;;;;;;;-1.67;99.98;100058.68;109737;1276;138741;-59
2023/01/15 04:12:57;;;;;;;26.80;14.30;;;;;;;-1.68;100.00;100056.27;109784;1282;23428;-60
2023/01/15 04:15:23;;;;;;;30.20;16.80;;;;;;;-1.69;100.00;100055.34;109855;1275;22287;-60
2023/01/15 04:17:50;;;;;;;;;;;;;;;-1.70;100.00;100056.67;109679;1283;139667;-60
2023/01/15 04:20:18;;;;;;;24.20;12.50;;;;;;;-1.72;100.00;100056.86;109798;1283;22363;-60
2023/01/15 04:22:44;;;;;;;25.10;12.80;;;;;;;-1.74;99.98;100053.75;109632;1282;138501;-60
2023/01/15 04:25:11;;;;;;;30.50;14.00;;;;;;;-1.76;100.00;100058.96;109826;1282;22196;-59
2023/01/15 04:27:38;;;;;;;28.80;13.80;;;;;;;-1.77;100.00;100052.11;109832;1275;22970;-60
2023/01/15 04:30:06;;;;;;;30.80;14.50;;;;;;;-1.74;100.00;100057.33;109683;1276;138822;-59
2023/01/15 04:32:32;;;;;;;34.60;15.90;;;;;;;-1.72;100.00;100058.14;109867;1282;22291;-60
2023/01/15 04:34:59;;;;;;;28.40;14.00;;;;;;;-1.71;100.00;100059.98;109761;1279;138753;-60
2023/01/15 04:37:26;;;;;;;27.80;14.00;;;;;;;-1.71;100.00;100054.27;109825;1277;22391;-60
2023/01/15 04:39:53;;;;;;;30.80;15.60;;;;;;;-1.72;100.00;100054.73;109887;1282;22211;-60
2023/01/15 04:45:05;;;;;;;24.20;11.60;;;;;;;-1.73;100.00;100055.90;109874;1275;22187;-60
2023/01/15 04:47:32;;;;;;;26.90;13.30;;;;;;;-1.76;100.00;100047.34;109806;1281;140208;-60
2023/01/15 04:49:59;;;;;;;30.10;14.00;;;;;;;-1.76;100.00;100048.14;109855;1281;22201;-60
2023/01/15 04:52:25;;;;;;;27.30;12.60;;;;;;;-1.75;100.00;100042.43;109741;1276;139561;-60
2023/01/15 04:54:53;;;;;;;27.00;13.20;;;;;;;-1.76;100.00;100037.89;109906;1279;22247;-59
2023/01/15 04:57:20;;;;;;;27.10;13.10;;;;;;;-1.76;100.00;100041.33;109878;1276;22253;-60
2023/01/15 04:59:47;;;;;;;28.30;14.50;;;;;;;-1.78;100.00;100047.40;109762;1281;138945;-60
2023/01/15 05:02:14;;;;;;;29.90;15.10;;;;;;;-1.78;100.00;100050.44;109846;1275;22947;-60
2023/01/15 05:04:41;;;;;;;24.00;13.80;;;;;;;-1.79;100.00;100049.27;109749;1277;139031;-60
2023/01/15 05:07:08;;;;;;;;;;;;;;;-1.79;100.00;100048.87;109898;1277;22972;-60
2023/01/15 05:09:35;;;;;;;24.30;12.80;;;;;;;-1.80;100.00;100044.36;109840;1276;22191;-60
2023/01/15 05:12:02;;;;;;;27.10;14.70;;;;;;;-1.82;100.00;100045.79;109762;1275;140203;-60
2023/01/15 05:14:28;;;;;;;;;;;;;;;-1.83;100.00;100038.27;109900;1276;22482;-60
2023/01/15 05:16:55;;;;;;;23.10;11.60;;;;;;;-1.83;100.00;100043.48;109752;1280;125141;-60
2023/01/15 05:19:22;;;;;;;26.10;12.30;;;;;;;-1.84;100.00;100046.21;109919;1281;22954;-59
2023/01/15 05:21:50;;;;;;;27.20;13.70;;;;;;;-1.82;100.00;100049.55;109945;1275;22944;-60
2023/01/15 05:24:17;;;;;;;27.00;12.80;;;;;;;-1.81;100.00;100048.86;109723;1281;140116;-60
2023/01/15 05:26:44;;;;;;;29.70;15.20;;;;;;;-1.80;100.00;100049.67;109879;1275;22220;-60
2023/01/15 05:29:11;;;;;;;;;;;;;;;-1.80;100.00;100046.64;109777;1281;139465;-60
2023/01/15 05:31:38;;;;;;;29.20;13.10;;;;;;;-1.80;100.00;100040.21;109855;1281;22200;-60
2023/01/15 05:34:04;;;;;;;26.40;12.90;;;;;;;-1.80;100.00;100039.91;109743;1280;138783;-61
2023/01/15 05:36:31;;;;;;;30.00;14.00;;;;;;;-1.79;100.00;100043.56;109912;1276;22188;-60
2023/01/15 05:39:00;;;;;;;35.40;14.20;;;;;;;-1.78;100.00;100043.49;109716;1273;172342;-61
2023/01/15 05:43:01;;;;;;;27.10;13.40;;;;;;;-1.77;100.00;100037.75;102819;1307;545767;-59
2023/01/15 05:45:28;;;;;;;31.20;14.90;;;;;;;-1.81;100.00;100038.02;105068;1280;24281;-60
2023/01/15 05:47:55;;;;;;;33.30;14.90;;;;;;;-1.77;100.00;100042.52;104822;1289;138301;-58
2023/01/15 05:50:22;;;;;;;30.50;14.20;;;;;;;-1.79;100.00;100041.21;104992;1289;22778;-59
2023/01/15 05:52:49;;;;;;;31.30;14.60;;;;;;;-1.82;100.00;100041.68;104767;1283;137895;-59
2023/01/15 05:55:15;;;;;;;33.10;16.00;;;;;;;-1.83;100.00;100044.68;104963;1282;22546;-59
2023/01/15 05:57:42;;;;;;;;;;;;;;;-1.85;100.00;100041.16;105077;1285;142463;-59
2023/01/15 06:00:09;;;;;;;34.20;15.30;;;;;;;-1.86;100.00;100043.17;105084;1280;125225;-59
2023/01/15 06:02:38;;;;;;;32.80;14.80;;;;;;;-1.86;100.00;100044.87;109526;1280;22570;-59
2023/01/15 06:05:05;;;;;;;34.70;15.20;;;;;;;-1.86;100.00;100047.68;109467;1283;139040;-59
2023/01/15 06:07:32;;;;;;;33.90;15.70;;;;;;;-1.87;100.00;100052.30;109591;1280;22392;-59
2023/01/15 06:09:58;;;;;;;29.80;15.80;;;;;;;-1.89;100.00;100050.16;109404;1280;138460;-59
2023/01/15 06:12:25;;;;;;;30.60;14.30;;;;;;;-1.89;100.00;100048.37;109611;1272;23269;-59
2023/01/15 06:14:52;;;;;;;;;;;;;;;-1.89;100.00;100049.60;109530;1280;23519;-59
2023/01/15 06:17:19;;;;;;;35.60;15.50;;;;;;;-1.88;100.00;100046.48;109438;1282;124651;-59
2023/01/15 06:19:45;;;;;;;40.80;16.30;;;;;;;-1.88;100.00;100040.61;109510;1288;22194;-59
2023/01/15 06:22:12;;;;;;;37.20;15.60;;;;;;;-1.89;100.00;100036.45;109279;1286;138356;-59
2023/01/15 06:24:39;;;;;;;35.20;16.20;;;;;;;-1.90;100.00;100038.68;109511;1285;23200;-59
2023/01/15 06:27:05;;;;;;;34.30;15.20;;;;;;;-1.91;100.00;100038.21;109383;1282;22366;-59
2023/01/15 06:29:32;;;;;;;32.30;14.40;;;;;;;-1.93;100.00;100039.34;109589;1280;138446;-60
2023/01/15 06:31:59;;;;;;;32.40;14.60;;;;;;;-1.91;100.00;100041.65;109657;1278;22196;-59
2023/01/15 06:34:26;;;;;;;36.80;15.00;;;;;;;-1.90;100.00;100039.58;109527;1286;138541;-59
2023/01/15 06:36:52;;;;;;;35.10;16.90;;;;;;;-1.89;100.00;100040.42;109653;1286;22254;-59
2023/01/15 06:39:19;;;;;;;35.00;16.90;;;;;;;-1.88;100.00;100036.71;109676;1280;22282;-59
2023/01/15 06:47:20;;;;;;;32.80;15.00;;;;;;;-1.88;100.00;100035.24;109521;1280;140102;-59
2023/01/15 06:49:49;;;;;;;45.00;19.10;;;;;;;-1.87;100.00;100038.30;109591;1281;22976;-59
2023/01/15 06:52:16;;;;;;;45.50;17.80;;;;;;;-1.84;100.00;100032.20;109556;1280;138543;-60
2023/01/15 06:54:43;;;;;;;32.00;15.90;;;;;;;-1.83;100.00;100031.53;109619;1279;22433;-59
2023/01/15 06:57:09;;;;;;;35.70;18.00;;;;;;;-1.82;100.00;100036.51;109613;1278;22256;-59
2023/01/15 06:59:36;;;;;;;37.10;15.70;;;;;;;-1.80;100.00;100037.21;109543;1286;138613;-59
2023/01/15 07:02:03;;;;;;;38.50;17.30;;;;;;;-1.78;100.00;100033.34;109679;1279;22250;-59
2023/01/15 07:04:30;;;;;;;;;;;;;;;-1.81;100.00;100031.23;109550;1285;138386;-58
2023/01/15 07:06:57;;;;;;;42.90;18.00;;;;;;;-1.81;100.00;100034.00;109653;1279;22433;-59
2023/01/15 07:09:24;;;;;;;44.70;19.00;;;;;;;-1.85;100.00;100034.89;109676;1279;22196;-59
2023/01/15 07:11:51;;;;;;;39.70;17.80;;;;;;;-1.84;100.00;100030.59;109522;1286;139058;-59
2023/01/15 07:14:18;;;;;;;;;;;;;;;-1.84;100.00;100031.80;109713;1279;22519;-59
2023/01/15 07:16:45;;;;;;;34.90;15.00;;;;;;;-1.82;100.00;100031.04;109531;1283;124405;-59
2023/01/15 07:19:12;;;;;;;;;;;;;;;-1.81;100.00;100031.43;109638;1283;22457;-59
2023/01/15 07:21:39;;;;;;;35.70;17.00;;;;;;;-1.78;100.00;100031.88;109626;1286;22277;-59
2023/01/15 07:24:05;;;;;;;;;;;;;;;-1.79;100.00;100029.67;109598;1279;138236;-58
2023/01/15 07:26:32;;;;;;;41.80;18.90;;;;;;;-1.77;100.00;100033.25;109606;1279;22245;-60
2023/01/15 07:28:59;;;;;;;;;;;;;;;-1.78;100.00;100036.75;109531;1280;138913;-59
2023/01/15 07:31:26;;;;;;;41.50;18.40;;;;;;;-1.77;100.00;100036.98;109606;1280;22208;-59
2023/01/15 07:33:54;;;;;;;;;;;;;;;-1.75;100.00;100041.23;109641;1280;22915;-60
2023/01/15 07:36:20;;;;;;;34.00;15.40;;;;;;;-1.74;100.00;100041.67;109540;1286;125844;-59
2023/01/15 07:38:47;;;;;;;34.20;17.10;;;;;;;-1.72;100.00;100042.31;109656;1285;22419;-60
2023/01/15 07:49:45;;;;;;;32.20;16.10;;;;;;;-1.63;100.00;100038.95;109598;1286;22203;-60
2023/01/15 07:52:12;;;;;;;33.60;16.20;;;;;;;-1.59;100.00;100038.18;109593;1282;138962;-60
2023/01/15 07:54:39;;;;;;;35.60;15.90;;;;;;;-1.57;100.00;100036.20;109702;1279;22187;-60
2023/01/15 07:57:06;;;;;;;32.30;16.00;;;;;;;-1.56;100.00;100039.95;109628;1286;22333;-60
2023/01/15 07:59:33;;;;;;;32.70;16.10;;;;;;;-1.56;100.00;100040.66;109507;1281;139583;-60
2023/01/15 08:01:59;;;;;;;;;;;;;;;-1.52;100.00;100040.79;109644;1285;22481;-60
2023/01/15 08:04:26;;;;;;;28.90;13.80;;;;;;;-1.50;100.00;100037.92;109618;1285;126560;-60
2023/01/15 08:06:53;;;;;;;32.20;14.30;;;;;;;-1.48;100.00;100038.73;109647;1286;22983;-60
2023/01/15 08:09:20;;;;;;;32.80;15.20;;;;;;;-1.46;100.00;100036.93;109738;1279;22318;-60
2023/01/15 08:17:17;;;;;;;29.90;14.30;;;;;;;-1.40;100.00;100039.98;109532;1279;139156;-60
2023/01/15 08:19:44;;;;;;;27.40;13.70;;;;;;;-1.39;100.00;100041.21;109664;1279;22349;-60
2023/01/15 08:22:11;;;;;;;26.80;13.10;;;;;;;-1.40;100.00;100039.81;109571;1282;138860;-60
2023/01/15 08:24:38;;;;;;;;;;;;;;;-1.41;99.96;100032.09;109647;1280;22535;-60
2023/01/15 08:27:04;;;;;;;28.30;13.50;;;;;;;-1.38;99.99;100029.12;109646;1282;22220;-60
2023/01/15 08:29:31;;;;;;;32.10;14.90;;;;;;;-1.37;100.00;100026.11;109767;1276;138255;-60
2023/01/15 08:31:58;;;;;;;31.30;15.20;;;;;;;-1.35;100.00;100026.85;109886;1279;22198;-60
2023/01/15 08:34:26;;;;;;;29.80;14.30;;;;;;;-1.35;99.98;100024.80;109727;1275;139014;-60
2023/01/15 08:36:58;;;;;;;27.70;13.70;;;;;;;-1.34;99.94;100024.55;109912;1276;22386;-59
2023/01/15 08:39:26;;;;;;;27.70;13.60;;;;;;;-1.34;99.87;100020.97;109879;1281;22328;-59
2023/01/15 08:41:54;;;;;;;23.00;12.60;;;;;;;-1.36;99.78;100020.47;109763;1275;138428;-59
2023/01/15 08:44:22;;;;;;;30.10;14.60;;;;;;;-1.37;99.70;100022.87;109890;1282;22222;-60
2023/01/15 08:46:49;;;;;;;26.00;13.10;;;;;;;-1.35;99.66;100019.36;109756;1281;138306;-59
2023/01/15 08:49:16;;;;;;;30.40;16.70;;;;;;;-1.32;99.83;100019.93;109902;1277;22217;-59
2023/01/15 08:51:43;;;;;;;;;;;;;;;-1.31;99.80;100018.13;109889;1276;22609;-60
2023/01/15 08:54:11;;;;;;;30.40;15.60;;;;;;;-1.28;99.71;100013.05;109795;1276;126102;-59
2023/01/15 08:56:37;;;;;;;29.40;15.20;;;;;;;-1.27;99.73;100007.48;109949;1278;22453;-60
2023/01/15 08:59:05;;;;;;;31.10;15.80;;;;;;;-1.24;99.77;100001.33;109781;1275;139158;-60
2023/01/15 09:01:31;;;;;;;27.30;13.20;;;;;;;-1.23;99.81;99997.69;109831;1279;22350;-60
2023/01/15 09:03:58;;;;;;;;;;;;;;;-1.24;99.43;99994.91;109862;1276;22413;-58
